Terminal Aerodrome Forecast
Issued by NWS

Home | Current Version | Previous Version | Text Only | Print | Product List | Glossary On
Versions: 1 2 3 4 5 6 7 8 9 10 11 12 13 14 15 16 17 18
000
FTUS43 KDLH 291135
TAFHYR
TAF
KHYR 291135Z 2912/3012 22014KT P6SM SCT040 WS010/26040KT
     FM291400 24012G25KT P6SM BKN040
     FM291800 26016G30KT P6SM BKN050
     FM300100 27012KT P6SM SCT060=

USA.gov is the U.S. government's official web portal to all federal, state and local government web resources and services.